sensor_id;sensor_type;location;lat;lon;timestamp;pressure;altitude;pressure_sealevel;temperature;humidity
5522;BME280;2783;48.730;8.006;2023-02-19T00:01:16;100821.22;;;12.47;89.67
5522;BME280;2783;48.730;8.006;2023-02-19T00:03:42;100816.84;;;12.45;90.01
5522;BME280;2783;48.730;8.006;2023-02-19T00:06:08;100809.63;;;12.48;89.67
5522;BME280;2783;48.730;8.006;2023-02-19T00:08:35;100804.22;;;12.51;89.77
5522;BME280;2783;48.730;8.006;2023-02-19T00:11:01;100791.81;;;12.50;89.03
5522;BME280;2783;48.730;8.006;2023-02-19T00:13:27;100792.66;;;12.51;88.85
5522;BME280;2783;48.730;8.006;2023-02-19T00:15:53;100783.72;;;12.53;88.29
5522;BME280;2783;48.730;8.006;2023-02-19T00:18:18;100782.97;;;12.48;87.13
5522;BME280;2783;48.730;8.006;2023-02-19T00:20:43;100788.16;;;12.53;86.31
5522;BME280;2783;48.730;8.006;2023-02-19T00:23:08;100789.69;;;12.61;86.08
5522;BME280;2783;48.730;8.006;2023-02-19T00:25:36;100793.25;;;12.62;85.45
5522;BME280;2783;48.730;8.006;2023-02-19T00:28:02;100789.59;;;12.64;85.14
5522;BME280;2783;48.730;8.006;2023-02-19T00:30:28;100781.50;;;12.67;85.22
5522;BME280;2783;48.730;8.006;2023-02-19T00:32:53;100794.16;;;12.61;85.17
5522;BME280;2783;48.730;8.006;2023-02-19T00:35:19;100778.13;;;12.61;84.33
5522;BME280;2783;48.730;8.006;2023-02-19T00:37:44;100789.50;;;12.67;84.59
5522;BME280;2783;48.730;8.006;2023-02-19T00:40:10;100782.53;;;12.63;83.49
5522;BME280;2783;48.730;8.006;2023-02-19T00:42:35;100781.44;;;12.69;83.80
5522;BME280;2783;48.730;8.006;2023-02-19T00:45:00;100778.72;;;12.70;83.99
5522;BME280;2783;48.730;8.006;2023-02-19T00:47:25;100775.13;;;12.73;84.11
5522;BME280;2783;48.730;8.006;2023-02-19T00:49:51;100767.41;;;12.62;83.30
5522;BME280;2783;48.730;8.006;2023-02-19T00:52:16;100772.59;;;12.68;83.56
5522;BME280;2783;48.730;8.006;2023-02-19T00:54:41;100771.75;;;12.66;83.82
5522;BME280;2783;48.730;8.006;2023-02-19T00:57:06;100778.00;;;12.65;82.99
5522;BME280;2783;48.730;8.006;2023-02-19T00:59:32;100782.59;;;12.60;83.24
5522;BME280;2783;48.730;8.006;2023-02-19T01:01:57;100774.69;;;12.57;82.50
5522;BME280;2783;48.730;8.006;2023-02-19T01:04:22;100773.59;;;12.64;82.56
5522;BME280;2783;48.730;8.006;2023-02-19T01:06:47;100761.19;;;12.63;82.05
5522;BME280;2783;48.730;8.006;2023-02-19T01:09:13;100760.28;;;12.63;82.47
5522;BME280;2783;48.730;8.006;2023-02-19T01:11:38;100761.22;;;12.60;82.50
5522;BME280;2783;48.730;8.006;2023-02-19T01:14:03;100768.44;;;12.58;83.49
5522;BME280;2783;48.730;8.006;2023-02-19T01:16:29;100770.09;;;12.62;84.23
5522;BME280;2783;48.730;8.006;2023-02-19T01:18:55;100763.25;;;12.52;84.85
5522;BME280;2783;48.730;8.006;2023-02-19T01:21:22;100758.94;;;12.48;85.40
5522;BME280;2783;48.730;8.006;2023-02-19T01:23:48;100761.69;;;12.45;85.31
5522;BME280;2783;48.730;8.006;2023-02-19T01:26:15;100756.28;;;12.48;85.82
5522;BME280;2783;48.730;8.006;2023-02-19T01:28:41;100761.69;;;12.45;86.02
5522;BME280;2783;48.730;8.006;2023-02-19T01:31:07;100762.69;;;12.41;85.48
5522;BME280;2783;48.730;8.006;2023-02-19T01:33:34;100768.69;;;12.49;85.52
5522;BME280;2783;48.730;8.006;2023-02-19T01:36:02;100775.78;;;12.50;85.05
5522;BME280;2783;48.730;8.006;2023-02-19T01:38:27;100774.13;;;12.46;84.79
5522;BME280;2783;48.730;8.006;2023-02-19T01:40:54;100770.47;;;12.50;84.49
5522;BME280;2783;48.730;8.006;2023-02-19T01:43:19;100767.16;;;12.41;84.72
5522;BME280;2783;48.730;8.006;2023-02-19T01:45:45;100773.28;;;12.44;84.60
5522;BME280;2783;48.730;8.006;2023-02-19T01:48:20;100777.84;;;12.39;85.06
5522;BME280;2783;48.730;8.006;2023-02-19T01:51:20;100774.19;;;12.43;85.79
5522;BME280;2783;48.730;8.006;2023-02-19T01:53:41;100784.03;;;12.41;86.60
5522;BME280;2783;48.730;8.006;2023-02-19T01:56:07;100785.22;;;12.31;87.23
5522;BME280;2783;48.730;8.006;2023-02-19T01:58:34;100790.53;;;12.31;87.93
5522;BME280;2783;48.730;8.006;2023-02-19T02:01:00;100772.94;;;12.24;87.09
5522;BME280;2783;48.730;8.006;2023-02-19T02:03:26;100757.72;;;12.28;86.73
5522;BME280;2783;48.730;8.006;2023-02-19T02:05:55;100771.13;;;12.26;86.88
5522;BME280;2783;48.730;8.006;2023-02-19T02:08:21;100756.78;;;12.30;86.88
5522;BME280;2783;48.730;8.006;2023-02-19T02:11:06;100765.88;;;12.23;87.29
5522;BME280;2783;48.730;8.006;2023-02-19T02:13:32;100748.28;;;12.16;87.95
5522;BME280;2783;48.730;8.006;2023-02-19T02:18:47;100747.47;;;12.13;87.49
5522;BME280;2783;48.730;8.006;2023-02-19T02:26:34;100736.63;;;12.20;86.06
5522;BME280;2783;48.730;8.006;2023-02-19T02:31:40;100742.84;;;12.19;85.41
5522;BME280;2783;48.730;8.006;2023-02-19T02:34:14;100752.63;;;12.20;84.20
5522;BME280;2783;48.730;8.006;2023-02-19T02:36:44;100756.78;;;12.30;84.46
5522;BME280;2783;48.730;8.006;2023-02-19T02:39:12;100752.59;;;12.22;84.42
5522;BME280;2783;48.730;8.006;2023-02-19T02:41:47;100747.28;;;12.20;84.71
5522;BME280;2783;48.730;8.006;2023-02-19T02:44:34;100746.50;;;12.17;84.64
5522;BME280;2783;48.730;8.006;2023-02-19T02:46:59;100739.28;;;12.20;85.00
5522;BME280;2783;48.730;8.006;2023-02-19T02:49:25;100739.38;;;12.17;85.23
5522;BME280;2783;48.730;8.006;2023-02-19T02:51:51;100740.28;;;12.16;84.70
5522;BME280;2783;48.730;8.006;2023-02-19T02:54:29;100726.09;;;12.16;85.31
5522;BME280;2783;48.730;8.006;2023-02-19T02:57:14;100725.13;;;12.18;85.20
5522;BME280;2783;48.730;8.006;2023-02-19T02:59:41;100744.66;;;12.19;84.49
5522;BME280;2783;48.730;8.006;2023-02-19T03:07:02;100735.41;;;12.32;83.88
5522;BME280;2783;48.730;8.006;2023-02-19T03:09:36;100731.75;;;12.34;84.36
5522;BME280;2783;48.730;8.006;2023-02-19T03:12:04;100737.88;;;12.38;84.27
5522;BME280;2783;48.730;8.006;2023-02-19T03:14:50;100731.66;;;12.37;83.81
5522;BME280;2783;48.730;8.006;2023-02-19T03:17:37;100731.06;;;12.28;84.30
5522;BME280;2783;48.730;8.006;2023-02-19T03:20:23;100718.50;;;12.31;84.57
5522;BME280;2783;48.730;8.006;2023-02-19T03:22:48;100723.81;;;12.33;86.00
5522;BME280;2783;48.730;8.006;2023-02-19T03:25:19;100719.53;;;12.27;85.88
5522;BME280;2783;48.730;8.006;2023-02-19T03:28:06;100725.63;;;12.31;85.89
5522;BME280;2783;48.730;8.006;2023-02-19T03:30:32;100732.84;;;12.29;85.54
5522;BME280;2783;48.730;8.006;2023-02-19T03:33:01;100730.97;;;12.31;85.81
5522;BME280;2783;48.730;8.006;2023-02-19T03:35:33;100723.28;;;12.20;86.14
5522;BME280;2783;48.730;8.006;2023-02-19T03:40:26;100730.63;;;12.12;86.89
5522;BME280;2783;48.730;8.006;2023-02-19T03:43:30;100716.38;;;12.13;87.07
5522;BME280;2783;48.730;8.006;2023-02-19T03:45:47;100735.88;;;12.15;87.14
5522;BME280;2783;48.730;8.006;2023-02-19T03:48:19;100742.09;;;12.14;87.87
5522;BME280;2783;48.730;8.006;2023-02-19T03:50:48;100739.38;;;12.17;87.44
5522;BME280;2783;48.730;8.006;2023-02-19T03:58:19;100748.19;;;12.19;86.99
5522;BME280;2783;48.730;8.006;2023-02-19T04:00:53;100758.84;;;12.19;87.30
5522;BME280;2783;48.730;8.006;2023-02-19T04:03:35;100770.50;;;12.17;87.38
5522;BME280;2783;48.730;8.006;2023-02-19T04:06:06;100766.09;;;12.14;88.06
5522;BME280;2783;48.730;8.006;2023-02-19T04:08:34;100763.63;;;12.08;87.79
5522;BME280;2783;48.730;8.006;2023-02-19T04:11:00;100761.13;;;12.02;87.40
5522;BME280;2783;48.730;8.006;2023-02-19T04:13:31;100768.91;;;12.10;86.54
5522;BME280;2783;48.730;8.006;2023-02-19T04:16:01;100772.25;;;12.18;86.77
5522;BME280;2783;48.730;8.006;2023-02-19T04:18:28;100771.38;;;12.17;87.12
5522;BME280;2783;48.730;8.006;2023-02-19T04:20:55;100776.06;;;12.08;87.66
5522;BME280;2783;48.730;8.006;2023-02-19T04:23:22;100783.03;;;12.13;88.04
5522;BME280;2783;48.730;8.006;2023-02-19T04:25:49;100781.34;;;12.11;88.35
5522;BME280;2783;48.730;8.006;2023-02-19T04:28:17;100785.00;;;12.07;89.55
5522;BME280;2783;48.730;8.006;2023-02-19T04:30:42;100791.53;;;11.95;90.20
5522;BME280;2783;48.730;8.006;2023-02-19T04:33:08;100792.50;;;11.91;90.55
5522;BME280;2783;48.730;8.006;2023-02-19T04:35:33;100797.25;;;11.80;92.16
5522;BME280;2783;48.730;8.006;2023-02-19T04:37:58;100801.63;;;11.82;92.71
5522;BME280;2783;48.730;8.006;2023-02-19T04:40:24;100806.13;;;11.80;93.50
5522;BME280;2783;48.730;8.006;2023-02-19T04:42:49;100814.28;;;11.73;94.71
5522;BME280;2783;48.730;8.006;2023-02-19T04:45:14;100817.34;;;11.56;96.26
5522;BME280;2783;48.730;8.006;2023-02-19T04:47:40;100828.97;;;11.52;98.30
5522;BME280;2783;48.730;8.006;2023-02-19T04:50:05;100827.28;;;11.48;98.74
5522;BME280;2783;48.730;8.006;2023-02-19T04:52:30;100833.38;;;11.53;99.47
5522;BME280;2783;48.730;8.006;2023-02-19T04:54:57;100836.00;;;11.56;99.49
5522;BME280;2783;48.730;8.006;2023-02-19T04:57:22;100838.81;;;11.49;100.00
5522;BME280;2783;48.730;8.006;2023-02-19T04:59:47;100847.00;;;11.41;100.00
5522;BME280;2783;48.730;8.006;2023-02-19T05:02:13;100853.19;;;11.42;100.00
5522;BME280;2783;48.730;8.006;2023-02-19T05:04:38;100850.50;;;11.43;100.00
5522;BME280;2783;48.730;8.006;2023-02-19T05:07:03;100856.00;;;11.36;100.00
5522;BME280;2783;48.730;8.006;2023-02-19T05:09:29;100862.19;;;11.38;100.00
5522;BME280;2783;48.730;8.006;2023-02-19T05:11:54;100856.00;;;11.36;100.00
5522;BME280;2783;48.730;8.006;2023-02-19T05:14:19;100857.03;;;11.29;100.00
5522;BME280;2783;48.730;8.006;2023-02-19T05:16:45;100855.44;;;11.22;100.00
5522;BME280;2783;48.730;8.006;2023-02-19T05:19:10;100855.59;;;11.14;100.00
5522;BME280;2783;48.730;8.006;2023-02-19T05:21:36;100847.59;;;11.14;100.00
5522;BME280;2783;48.730;8.006;2023-02-19T05:24:01;100857.44;;;11.11;100.00
5522;BME280;2783;48.730;8.006;2023-02-19T05:26:26;100848.59;;;11.09;100.00
5522;BME280;2783;48.730;8.006;2023-02-19T05:28:52;100854.00;;;11.06;100.00
5522;BME280;2783;48.730;8.006;2023-02-19T05:31:18;100858.47;;;11.05;100.00
5522;BME280;2783;48.730;8.006;2023-02-19T05:33:43;100853.16;;;11.05;100.00
5522;BME280;2783;48.730;8.006;2023-02-19T05:36:10;100857.66;;;11.02;100.00
5522;BME280;2783;48.730;8.006;2023-02-19T05:38:36;100848.22;;;10.87;100.00
5522;BME280;2783;48.730;8.006;2023-02-19T05:43:36;100850.50;;;11.04;100.00
5522;BME280;2783;48.730;8.006;2023-02-19T05:46:02;100841.69;;;11.02;100.00
5522;BME280;2783;48.730;8.006;2023-02-19T05:48:27;100840.94;;;10.95;100.00
5522;BME280;2783;48.730;8.006;2023-02-19T05:50:52;100838.34;;;10.91;100.00
5522;BME280;2783;48.730;8.006;2023-02-19T05:53:18;100835.59;;;10.97;100.00
5522;BME280;2783;48.730;8.006;2023-02-19T05:55:43;100832.88;;;10.98;100.00
5522;BME280;2783;48.730;8.006;2023-02-19T05:58:08;100835.44;;;11.03;100.00
5522;BME280;2783;48.730;8.006;2023-02-19T06:00:34;100839.97;;;10.98;100.00
5522;BME280;2783;48.730;8.006;2023-02-19T06:02:59;100852.19;;;11.08;100.00
5522;BME280;2783;48.730;8.006;2023-02-19T06:05:24;100849.47;;;11.11;100.00
5522;BME280;2783;48.730;8.006;2023-02-19T06:07:50;100860.88;;;11.16;100.00
5522;BME280;2783;48.730;8.006;2023-02-19T06:10:15;100865.34;;;11.14;100.00
5522;BME280;2783;48.730;8.006;2023-02-19T06:12:41;100869.97;;;11.06;100.00
5522;BME280;2783;48.730;8.006;2023-02-19T06:15:06;100867.25;;;11.09;100.00
5522;BME280;2783;48.730;8.006;2023-02-19T06:17:32;100866.44;;;11.07;100.00
5522;BME280;2783;48.730;8.006;2023-02-19T06:19:57;100871.75;;;11.07;100.00
5522;BME280;2783;48.730;8.006;2023-02-19T06:22:22;100875.19;;;11.12;100.00
5522;BME280;2783;48.730;8.006;2023-02-19T06:24:48;100876.94;;;11.13;100.00
5522;BME280;2783;48.730;8.006;2023-02-19T06:27:13;100873.31;;;11.17;100.00
5522;BME280;2783;48.730;8.006;2023-02-19T06:29:39;100875.91;;;11.20;100.00
5522;BME280;2783;48.730;8.006;2023-02-19T06:32:05;100877.69;;;11.19;100.00
5522;BME280;2783;48.730;8.006;2023-02-19T06:34:30;100881.16;;;11.23;100.00
5522;BME280;2783;48.730;8.006;2023-02-19T06:36:56;100887.41;;;11.22;100.00
5522;BME280;2783;48.730;8.006;2023-02-19T06:39:21;100886.41;;;11.26;100.00
5522;BME280;2783;48.730;8.006;2023-02-19T06:41:47;100885.44;;;11.30;100.00
5522;BME280;2783;48.730;8.006;2023-02-19T06:44:12;100888.06;;;11.31;99.68
5522;BME280;2783;48.730;8.006;2023-02-19T06:46:37;100896.09;;;11.30;100.00
5522;BME280;2783;48.730;8.006;2023-02-19T06:49:03;100903.09;;;11.34;99.89
5522;BME280;2783;48.730;8.006;2023-02-19T06:51:28;100901.28;;;11.36;99.64
5522;BME280;2783;48.730;8.006;2023-02-19T06:53:54;100905.66;;;11.40;99.21
5522;BME280;2783;48.730;8.006;2023-02-19T06:56:30;100906.47;;;11.42;99.06
5522;BME280;2783;48.730;8.006;2023-02-19T06:58:56;100906.53;;;11.39;98.39
5522;BME280;2783;48.730;8.006;2023-02-19T07:01:23;100919.81;;;11.40;98.42
5522;BME280;2783;48.730;8.006;2023-02-19T07:03:48;100927.00;;;11.37;99.39
5522;BME280;2783;48.730;8.006;2023-02-19T07:06:14;100937.63;;;11.38;99.50
5522;BME280;2783;48.730;8.006;2023-02-19T07:08:40;100945.66;;;11.37;100.00
5522;BME280;2783;48.730;8.006;2023-02-19T07:11:05;100945.78;;;11.31;100.00
5522;BME280;2783;48.730;8.006;2023-02-19T07:13:30;100931.63;;;11.29;100.00
5522;BME280;2783;48.730;8.006;2023-02-19T07:15:59;100944.94;;;11.29;100.00
5522;BME280;2783;48.730;8.006;2023-02-19T07:18:24;100953.81;;;11.29;100.00
5522;BME280;2783;48.730;8.006;2023-02-19T07:20:50;100947.50;;;11.35;100.00
5522;BME280;2783;48.730;8.006;2023-02-19T07:23:15;100952.91;;;11.29;100.00
5522;BME280;2783;48.730;8.006;2023-02-19T07:25:40;100954.59;;;11.34;100.00
5522;BME280;2783;48.730;8.006;2023-02-19T07:28:05;100949.22;;;11.36;100.00
5522;BME280;2783;48.730;8.006;2023-02-19T07:30:31;100958.19;;;11.32;100.00
5522;BME280;2783;48.730;8.006;2023-02-19T07:32:56;100955.34;;;11.41;99.88
5522;BME280;2783;48.730;8.006;2023-02-19T07:35:21;100958.94;;;11.40;99.77
5522;BME280;2783;48.730;8.006;2023-02-19T07:37:47;100964.25;;;11.40;99.51
5522;BME280;2783;48.730;8.006;2023-02-19T07:40:12;100965.06;;;11.42;98.83
5522;BME280;2783;48.730;8.006;2023-02-19T07:42:37;100969.50;;;11.43;99.47
5522;BME280;2783;48.730;8.006;2023-02-19T07:45:02;100980.13;;;11.44;99.12
5522;BME280;2783;48.730;8.006;2023-02-19T07:47:28;100973.00;;;11.46;98.94
5522;BME280;2783;48.730;8.006;2023-02-19T07:49:53;100978.28;;;11.48;99.07
5522;BME280;2783;48.730;8.006;2023-02-19T07:52:19;100982.63;;;11.52;99.51
5522;BME280;2783;48.730;8.006;2023-02-19T07:54:44;100977.28;;;11.52;99.04
5522;BME280;2783;48.730;8.006;2023-02-19T07:57:09;100988.88;;;11.51;99.00
5522;BME280;2783;48.730;8.006;2023-02-19T07:59:34;100996.88;;;11.51;99.28
5522;BME280;2783;48.730;8.006;2023-02-19T08:02:00;101007.53;;;11.51;100.00
5522;BME280;2783;48.730;8.006;2023-02-19T08:04:45;101003.28;;;11.41;100.00
5522;BME280;2783;48.730;8.006;2023-02-19T08:07:11;101011.22;;;11.44;100.00
5522;BME280;2783;48.730;8.006;2023-02-19T08:09:36;101011.16;;;11.47;100.00
5522;BME280;2783;48.730;8.006;2023-02-19T08:12:02;101015.63;;;11.46;100.00
5522;BME280;2783;48.730;8.006;2023-02-19T08:14:46;101014.63;;;11.50;100.00
5522;BME280;2783;48.730;8.006;2023-02-19T08:17:11;101011.06;;;11.51;100.00
5522;BME280;2783;48.730;8.006;2023-02-19T08:19:36;101006.72;;;11.47;100.00
5522;BME280;2783;48.730;8.006;2023-02-19T08:22:02;101007.53;;;11.51;100.00
5522;BME280;2783;48.730;8.006;2023-02-19T08:24:27;101007.34;;;11.58;100.00
5522;BME280;2783;48.730;8.006;2023-02-19T08:26:52;101003.66;;;11.67;100.00
5522;BME280;2783;48.730;8.006;2023-02-19T08:29:21;100998.19;;;11.73;100.00
5522;BME280;2783;48.730;8.006;2023-02-19T08:31:46;101002.63;;;11.74;100.00
5522;BME280;2783;48.730;8.006;2023-02-19T08:34:11;100994.56;;;11.77;100.00
5522;BME280;2783;48.730;8.006;2023-02-19T08:36:37;100999.69;;;11.86;99.75
5522;BME280;2783;48.730;8.006;2023-02-19T08:39:02;101002.22;;;11.92;99.28
5522;BME280;2783;48.730;8.006;2023-02-19T08:41:27;101003.19;;;11.88;97.27
5522;BME280;2783;48.730;8.006;2023-02-19T08:43:53;101010.03;;;12.00;96.91
5522;BME280;2783;48.730;8.006;2023-02-19T08:46:18;101005.50;;;12.03;95.92
5522;BME280;2783;48.730;8.006;2023-02-19T08:48:43;101006.31;;;12.07;94.76
5522;BME280;2783;48.730;8.006;2023-02-19T08:51:09;101008.75;;;12.17;94.14
5522;BME280;2783;48.730;8.006;2023-02-19T08:53:35;101013.84;;;12.26;93.80
5522;BME280;2783;48.730;8.006;2023-02-19T08:56:07;101015.44;;;12.35;93.83
5522;BME280;2783;48.730;8.006;2023-02-19T08:58:33;101031.31;;;12.39;94.79
5522;BME280;2783;48.730;8.006;2023-02-19T09:00:59;101024.06;;;12.46;95.11
5522;BME280;2783;48.730;8.006;2023-02-19T09:03:24;101030.44;;;12.40;94.52
5522;BME280;2783;48.730;8.006;2023-02-19T09:05:49;101021.69;;;12.32;95.24
5522;BME280;2783;48.730;8.006;2023-02-19T09:08:14;101026.03;;;12.38;95.57
5522;BME280;2783;48.730;8.006;2023-02-19T09:10:40;101025.94;;;12.41;95.28
5522;BME280;2783;48.730;8.006;2023-02-19T09:13:05;101025.81;;;12.47;95.51
5522;BME280;2783;48.730;8.006;2023-02-19T09:15:31;101037.59;;;12.38;94.90
5522;BME280;2783;48.730;8.006;2023-02-19T09:17:57;101034.06;;;12.36;95.23
5522;BME280;2783;48.730;8.006;2023-02-19T09:20:22;101046.56;;;12.34;95.30
5522;BME280;2783;48.730;8.006;2023-02-19T09:22:47;101043.69;;;12.43;95.30
5522;BME280;2783;48.730;8.006;2023-02-19T09:25:13;101037.34;;;12.47;94.95
5522;BME280;2783;48.730;8.006;2023-02-19T09:27:38;101045.16;;;12.56;94.63
5522;BME280;2783;48.730;8.006;2023-02-19T09:30:03;101040.56;;;12.61;94.35
5522;BME280;2783;48.730;8.006;2023-02-19T09:32:29;101044.91;;;12.65;93.62
5522;BME280;2783;48.730;8.006;2023-02-19T09:34:55;101043.13;;;12.66;93.52
5522;BME280;2783;48.730;8.006;2023-02-19T09:37:23;101036.47;;;12.82;92.56
5522;BME280;2783;48.730;8.006;2023-02-19T09:39:49;101042.31;;;12.97;91.90
5522;BME280;2783;48.730;8.006;2023-02-19T09:42:15;101048.31;;;13.07;91.38
5522;BME280;2783;48.730;8.006;2023-02-19T09:44:43;101054.34;;;13.15;90.64
5522;BME280;2783;48.730;8.006;2023-02-19T09:47:16;101064.03;;;13.19;89.89
5522;BME280;2783;48.730;8.006;2023-02-19T09:49:43;101072.75;;;13.26;89.13
5522;BME280;2783;48.730;8.006;2023-02-19T09:54:42;101075.06;;;13.39;89.77
5522;BME280;2783;48.730;8.006;2023-02-19T09:57:13;101074.41;;;13.30;88.31
5522;BME280;2783;48.730;8.006;2023-02-19T09:59:39;101077.84;;;13.35;87.87
5522;BME280;2783;48.730;8.006;2023-02-19T10:04:37;101091.97;;;13.40;88.38
5522;BME280;2783;48.730;8.006;2023-02-19T10:07:07;101082.13;;;13.42;86.67
5522;BME280;2783;48.730;8.006;2023-02-19T10:09:34;101089.28;;;13.40;85.27
5522;BME280;2783;48.730;8.006;2023-02-19T10:12:00;101090.22;;;13.39;83.10
5522;BME280;2783;48.730;8.006;2023-02-19T10:14:29;101083.03;;;13.41;82.49
5522;BME280;2783;48.730;8.006;2023-02-19T10:17:01;101082.28;;;13.36;80.89
5522;BME280;2783;48.730;8.006;2023-02-19T10:19:28;101083.38;;;13.29;79.59
5522;BME280;2783;48.730;8.006;2023-02-19T10:21:53;101088.63;;;13.32;80.20
5522;BME280;2783;48.730;8.006;2023-02-19T10:24:22;101090.13;;;13.42;80.20
5522;BME280;2783;48.730;8.006;2023-02-19T10:26:49;101097.22;;;13.44;79.72
5522;BME280;2783;48.730;8.006;2023-02-19T10:29:15;101099.91;;;13.43;78.82
5522;BME280;2783;48.730;8.006;2023-02-19T10:31:40;101099.91;;;13.43;78.18
5522;BME280;2783;48.730;8.006;2023-02-19T10:34:05;101096.47;;;13.39;77.86
5522;BME280;2783;48.730;8.006;2023-02-19T10:36:40;101101.13;;;13.30;78.25
5522;BME280;2783;48.730;8.006;2023-02-19T10:41:47;101104.06;;;13.20;77.16
5522;BME280;2783;48.730;8.006;2023-02-19T10:44:13;101101.31;;;13.23;77.57
5522;BME280;2783;48.730;8.006;2023-02-19T10:46:44;101107.47;;;13.27;75.93
5522;BME280;2783;48.730;8.006;2023-02-19T10:51:39;101107.31;;;13.32;77.33
5522;BME280;2783;48.730;8.006;2023-02-19T10:56:49;101106.34;;;13.36;76.66
5522;BME280;2783;48.730;8.006;2023-02-19T11:04:37;101118.28;;;13.23;78.05
5522;BME280;2783;48.730;8.006;2023-02-19T11:09:36;101093.75;;;13.41;77.18
5522;BME280;2783;48.730;8.006;2023-02-19T11:12:02;101092.06;;;13.37;74.94
5522;BME280;2783;48.730;8.006;2023-02-19T11:14:29;101087.31;;;13.46;75.75
5522;BME280;2783;48.730;8.006;2023-02-19T11:16:56;101090.75;;;13.51;75.38
5522;BME280;2783;48.730;8.006;2023-02-19T11:19:24;101094.78;;;13.66;75.81
5522;BME280;2783;48.730;8.006;2023-02-19T11:21:50;101100.00;;;13.72;75.19
5522;BME280;2783;48.730;8.006;2023-02-19T11:24:24;101090.16;;;13.72;74.18
5522;BME280;2783;48.730;8.006;2023-02-19T11:26:50;101089.84;;;13.83;74.39
5522;BME280;2783;48.730;8.006;2023-02-19T11:29:16;101092.53;;;13.83;73.41
5522;BME280;2783;48.730;8.006;2023-02-19T11:31:43;101092.34;;;13.89;73.24
5522;BME280;2783;48.730;8.006;2023-02-19T11:36:38;101093.47;;;14.11;71.29
5522;BME280;2783;48.730;8.006;2023-02-19T11:44:36;101099.97;;;14.02;70.63
5522;BME280;2783;48.730;8.006;2023-02-19T11:49:53;101104.28;;;14.08;71.69
5522;BME280;2783;48.730;8.006;2023-02-19T11:59:57;101105.41;;;13.99;70.84
5522;BME280;2783;48.730;8.006;2023-02-19T12:04:52;101105.69;;;13.90;71.62
5522;BME280;2783;48.730;8.006;2023-02-19T12:15:12;101101.19;;;14.21;70.88
5522;BME280;2783;48.730;8.006;2023-02-19T12:25:37;101099.38;;;14.22;69.37
5522;BME280;2783;48.730;8.006;2023-02-19T12:38:30;101104.94;;;14.45;69.20
5522;BME280;2783;48.730;8.006;2023-02-19T12:41:09;101100.31;;;14.50;70.94
5522;BME280;2783;48.730;8.006;2023-02-19T12:43:39;101112.16;;;14.43;70.08
5522;BME280;2783;48.730;8.006;2023-02-19T12:46:14;101101.34;;;14.46;69.92
5522;BME280;2783;48.730;8.006;2023-02-19T12:48:47;101100.19;;;14.55;71.53
5522;BME280;2783;48.730;8.006;2023-02-19T12:56:13;101103.28;;;14.41;70.82
5522;BME280;2783;48.730;8.006;2023-02-19T12:58:48;101083.00;;;14.34;71.78
5522;BME280;2783;48.730;8.006;2023-02-19T13:01:17;101088.09;;;14.41;74.65
5522;BME280;2783;48.730;8.006;2023-02-19T13:03:46;101085.47;;;14.40;74.35
5522;BME280;2783;48.730;8.006;2023-02-19T13:06:21;101090.38;;;14.26;74.87
5522;BME280;2783;48.730;8.006;2023-02-19T13:08:50;101085.50;;;14.09;75.62
5522;BME280;2783;48.730;8.006;2023-02-19T13:12:02;101095.72;;;13.95;77.09
5522;BME280;2783;48.730;8.006;2023-02-19T13:16:36;101083.84;;;13.75;78.12
5522;BME280;2783;48.730;8.006;2023-02-19T13:19:04;101088.41;;;13.71;78.13
5522;BME280;2783;48.730;8.006;2023-02-19T13:21:33;101086.78;;;13.66;79.08
5522;BME280;2783;48.730;8.006;2023-02-19T13:24:22;101092.22;;;13.63;79.74
5522;BME280;2783;48.730;8.006;2023-02-19T13:29:36;101076.25;;;13.60;80.55
5522;BME280;2783;48.730;8.006;2023-02-19T13:34:49;101084.78;;;13.42;78.05
5522;BME280;2783;48.730;8.006;2023-02-19T13:37:17;101086.88;;;13.31;76.81
5522;BME280;2783;48.730;8.006;2023-02-19T13:39:52;101092.31;;;13.28;76.63
5522;BME280;2783;48.730;8.006;2023-02-19T13:42:25;101081.38;;;13.37;78.10
5522;BME280;2783;48.730;8.006;2023-02-19T13:44:51;101078.66;;;13.38;77.72
5522;BME280;2783;48.730;8.006;2023-02-19T13:50:05;101085.78;;;13.70;76.81
5522;BME280;2783;48.730;8.006;2023-02-19T13:52:32;101090.00;;;13.78;76.54
5522;BME280;2783;48.730;8.006;2023-02-19T13:57:42;101080.00;;;13.85;75.17
5522;BME280;2783;48.730;8.006;2023-02-19T14:00:46;101078.41;;;13.78;74.69
5522;BME280;2783;48.730;8.006;2023-02-19T14:03:24;101071.31;;;13.77;75.69
5522;BME280;2783;48.730;8.006;2023-02-19T14:06:12;101066.31;;;13.65;73.97
5522;BME280;2783;48.730;8.006;2023-02-19T14:08:50;101064.63;;;13.61;74.18
5522;BME280;2783;48.730;8.006;2023-02-19T14:11:17;101068.06;;;13.66;75.36
5522;BME280;2783;48.730;8.006;2023-02-19T14:18:52;101069.28;;;13.54;73.82
5522;BME280;2783;48.730;8.006;2023-02-19T14:21:33;101062.19;;;13.53;74.30
5522;BME280;2783;48.730;8.006;2023-02-19T14:23:59;101070.50;;;13.43;74.34
5522;BME280;2783;48.730;8.006;2023-02-19T14:26:24;101073.09;;;13.46;73.84
5522;BME280;2783;48.730;8.006;2023-02-19T14:28:50;101066.75;;;13.50;73.96
5522;BME280;2783;48.730;8.006;2023-02-19T14:31:18;101070.16;;;13.55;73.42
5522;BME280;2783;48.730;8.006;2023-02-19T14:33:46;101060.41;;;13.54;73.36
5522;BME280;2783;48.730;8.006;2023-02-19T14:36:15;101067.44;;;13.56;73.06
5522;BME280;2783;48.730;8.006;2023-02-19T14:38:45;101070.34;;;13.49;70.85
5522;BME280;2783;48.730;8.006;2023-02-19T14:41:12;101059.56;;;13.52;71.38
5522;BME280;2783;48.730;8.006;2023-02-19T14:43:39;101060.53;;;13.49;72.24
5522;BME280;2783;48.730;8.006;2023-02-19T14:46:27;101066.00;;;13.45;72.51
5522;BME280;2783;48.730;8.006;2023-02-19T14:48:53;101065.25;;;13.40;72.22
5522;BME280;2783;48.730;8.006;2023-02-19T14:51:24;101069.63;;;13.42;71.11
5522;BME280;2783;48.730;8.006;2023-02-19T14:53:52;101064.16;;;13.47;71.19
5522;BME280;2783;48.730;8.006;2023-02-19T14:56:22;101071.00;;;13.57;71.56
5522;BME280;2783;48.730;8.006;2023-02-19T14:59:05;101066.78;;;13.48;71.38
5522;BME280;2783;48.730;8.006;2023-02-19T15:01:30;101068.53;;;13.51;70.67
5522;BME280;2783;48.730;8.006;2023-02-19T15:03:55;101081.03;;;13.49;71.98
5522;BME280;2783;48.730;8.006;2023-02-19T15:06:21;101078.13;;;13.56;71.57
5522;BME280;2783;48.730;8.006;2023-02-19T15:08:50;101080.84;;;13.55;71.47